ANA404 RJSK-RJTT
Flight info
| Callsign | ANA404 |
|---|---|
| Flight time | 0h 55m |
| Altitude | 36000 |
| Route | YTE Y32 RUBIS Y10 ASHRA/N0464F380 Y10 GODIN |
| Aircraft | B738/M-SDE2E3FGHIRWXY/LB1 |
Departure
| Time | 2026-04-25 21:23 |
|---|---|
| Airport | Akita Airport (RJSK) |
Arrival
| Time | 2026-04-25 22:18 |
|---|---|
| Airport | Tokyo Haneda International Airport (RJTT) |
| Time | Latitude | Longitude | Altitude | Speed | Heading |
|---|---|---|---|---|---|
| 2026-04-25 20:54 | 39.61249 | 140.21921 | 311 ft | 0 kts | 186° |
| 2026-04-25 21:10 | 39.61261 | 140.21922 | 310 ft | 2 kts | 186° |
| 2026-04-25 21:10 | 39.61278 | 140.21925 | 310 ft | 2 kts | 186° |
| 2026-04-25 21:11 | 39.61294 | 140.21927 | 310 ft | 2 kts | 186° |
| 2026-04-25 21:11 | 39.61310 | 140.21929 | 310 ft | 2 kts | 186° |
| 2026-04-25 21:11 | 39.61321 | 140.21931 | 310 ft | 0 kts | 186° |
| 2026-04-25 21:13 | 39.61316 | 140.21919 | 310 ft | 3 kts | 252° |
| 2026-04-25 21:13 | 39.61326 | 140.21913 | 310 ft | 3 kts | 356° |
| 2026-04-25 21:13 | 39.61379 | 140.21905 | 309 ft | 12 kts | 319° |
| 2026-04-25 21:13 | 39.61385 | 140.21895 | 310 ft | 0 kts | 306° |
| 2026-04-25 21:14 | 39.61385 | 140.21894 | 310 ft | 0 kts | 301° |
| 2026-04-25 21:14 | 39.61384 | 140.21892 | 310 ft | 0 kts | 274° |
| 2026-04-25 21:14 | 39.61383 | 140.21891 | 310 ft | 0 kts | 248° |
| 2026-04-25 21:14 | 39.61380 | 140.21891 | 310 ft | 0 kts | 210° |
| 2026-04-25 21:15 | 39.61379 | 140.21892 | 309 ft | 0 kts | 192° |
| 2026-04-25 21:15 | 39.61378 | 140.21894 | 309 ft | 0 kts | 163° |
| 2026-04-25 21:15 | 39.61376 | 140.21895 | 309 ft | 0 kts | 162° |
| 2026-04-25 21:15 | 39.61375 | 140.21898 | 309 ft | 0 kts | 133° |
| 2026-04-25 21:16 | 39.61373 | 140.21899 | 310 ft | 2 kts | 146° |
| 2026-04-25 21:16 | 39.61371 | 140.21901 | 310 ft | 1 kts | 146° |
| 2026-04-25 21:16 | 39.61369 | 140.21902 | 310 ft | 0 kts | 146° |
| 2026-04-25 21:16 | 39.61367 | 140.21904 | 310 ft | 0 kts | 145° |
| 2026-04-25 21:17 | 39.61366 | 140.21906 | 310 ft | 0 kts | 134° |
| 2026-04-25 21:17 | 39.61366 | 140.21909 | 309 ft | 2 kts | 115° |
| 2026-04-25 21:17 | 39.61365 | 140.21913 | 309 ft | 1 kts | 115° |
| 2026-04-25 21:17 | 39.61363 | 140.21916 | 310 ft | 0 kts | 115° |
| 2026-04-25 21:18 | 39.61362 | 140.21920 | 310 ft | 0 kts | 115° |
| 2026-04-25 21:18 | 39.61361 | 140.21923 | 310 ft | 1 kts | 115° |
| 2026-04-25 21:18 | 39.61359 | 140.21925 | 310 ft | 0 kts | 130° |
| 2026-04-25 21:18 | 39.61357 | 140.21926 | 310 ft | 0 kts | 143° |
| 2026-04-25 21:19 | 39.61353 | 140.21930 | 310 ft | 3 kts | 143° |
| 2026-04-25 21:19 | 39.61343 | 140.21929 | 310 ft | 0 kts | 223° |
| 2026-04-25 21:19 | 39.61357 | 140.21892 | 309 ft | 11 kts | 315° |
| 2026-04-25 21:19 | 39.61406 | 140.21759 | 309 ft | 21 kts | 277° |
| 2026-04-25 21:20 | 39.61424 | 140.21566 | 307 ft | 21 kts | 276° |
| 2026-04-25 21:20 | 39.61436 | 140.21441 | 306 ft | 21 kts | 277° |
| 2026-04-25 21:20 | 39.61457 | 140.21196 | 304 ft | 20 kts | 276° |
| 2026-04-25 21:20 | 39.61472 | 140.21021 | 305 ft | 19 kts | 276° |
| 2026-04-25 21:21 | 39.61487 | 140.20849 | 302 ft | 19 kts | 276° |
| 2026-04-25 21:21 | 39.61502 | 140.20685 | 300 ft | 18 kts | 277° |
| 2026-04-25 21:21 | 39.61517 | 140.20526 | 301 ft | 17 kts | 277° |
| 2026-04-25 21:21 | 39.61584 | 140.20423 | 298 ft | 17 kts | 1° |
| 2026-04-25 21:22 | 39.61605 | 140.20425 | 297 ft | 1 kts | 7° |
| 2026-04-25 21:22 | 39.61638 | 140.20430 | 299 ft | 9 kts | 7° |
| 2026-04-25 21:22 | 39.61689 | 140.20477 | 300 ft | 11 kts | 93° |
| 2026-04-25 21:22 | 39.61673 | 140.20657 | 301 ft | 52 kts | 96° |
| 2026-04-25 21:23 | 39.61597 | 140.21502 | 307 ft | 135 kts | 96° |
| 2026-04-25 21:23 | 39.61468 | 140.22990 | 580 ft | 184 kts | 96° |
| 2026-04-25 21:23 | 39.61304 | 140.24672 | 1589 ft | 200 kts | 109° |
| 2026-04-25 21:23 | 39.60457 | 140.25996 | 2589 ft | 202 kts | 153° |
| 2026-04-25 21:24 | 39.58988 | 140.26440 | 2852 ft | 233 kts | 178° |
| 2026-04-25 21:24 | 39.57294 | 140.26580 | 3390 ft | 253 kts | 178° |
| 2026-04-25 21:24 | 39.55523 | 140.26757 | 4250 ft | 257 kts | 177° |
| 2026-04-25 21:24 | 39.53713 | 140.26972 | 5036 ft | 264 kts | 176° |
| 2026-04-25 21:25 | 39.51865 | 140.27225 | 5839 ft | 270 kts | 176° |
| 2026-04-25 21:25 | 39.49987 | 140.27507 | 6653 ft | 275 kts | 175° |
| 2026-04-25 21:25 | 39.48072 | 140.27813 | 7447 ft | 277 kts | 175° |
| 2026-04-25 21:25 | 39.46154 | 140.28132 | 8276 ft | 279 kts | 175° |
| 2026-04-25 21:26 | 39.44219 | 140.28461 | 9080 ft | 282 kts | 174° |
| 2026-04-25 21:26 | 39.42265 | 140.28800 | 9853 ft | 285 kts | 174° |
| 2026-04-25 21:26 | 39.40285 | 140.29148 | 10553 ft | 291 kts | 174° |
| 2026-04-25 21:26 | 39.38201 | 140.29513 | 10766 ft | 314 kts | 174° |
| 2026-04-25 21:27 | 39.35958 | 140.29909 | 10954 ft | 337 kts | 174° |
| 2026-04-25 21:27 | 39.33555 | 140.30335 | 11121 ft | 358 kts | 174° |
| 2026-04-25 21:27 | 39.31026 | 140.30786 | 11402 ft | 373 kts | 174° |
| 2026-04-25 21:27 | 39.28423 | 140.31253 | 11959 ft | 379 kts | 174° |
| 2026-04-25 21:28 | 39.25842 | 140.31716 | 12655 ft | 381 kts | 173° |
| 2026-04-25 21:28 | 39.23201 | 140.32189 | 13320 ft | 384 kts | 174° |
| 2026-04-25 21:28 | 39.20511 | 140.32669 | 13988 ft | 387 kts | 174° |
| 2026-04-25 21:28 | 39.17833 | 140.33147 | 14579 ft | 390 kts | 174° |
| 2026-04-25 21:29 | 39.15131 | 140.33628 | 15200 ft | 392 kts | 174° |
| 2026-04-25 21:29 | 39.12461 | 140.34104 | 15789 ft | 394 kts | 174° |
| 2026-04-25 21:29 | 39.09731 | 140.34588 | 16385 ft | 397 kts | 174° |
| 2026-04-25 21:29 | 39.06979 | 140.34971 | 16958 ft | 398 kts | 178° |
| 2026-04-25 21:30 | 39.04166 | 140.35084 | 17501 ft | 401 kts | 181° |
| 2026-04-25 21:30 | 39.01400 | 140.35083 | 18060 ft | 404 kts | 182° |
| 2026-04-25 21:30 | 38.98589 | 140.35057 | 18611 ft | 406 kts | 182° |
| 2026-04-25 21:30 | 38.96703 | 140.35043 | 18905 ft | 408 kts | 182° |
| 2026-04-25 21:31 | 38.92881 | 140.35043 | 19485 ft | 413 kts | 181° |
| 2026-04-25 21:31 | 38.90001 | 140.35064 | 19916 ft | 416 kts | 181° |
| 2026-04-25 21:31 | 38.87084 | 140.35096 | 20352 ft | 419 kts | 181° |
| 2026-04-25 21:31 | 38.84163 | 140.35136 | 20788 ft | 422 kts | 181° |
| 2026-04-25 21:32 | 38.81209 | 140.35179 | 21211 ft | 425 kts | 181° |
| 2026-04-25 21:32 | 38.78238 | 140.35224 | 21608 ft | 428 kts | 181° |
| 2026-04-25 21:32 | 38.75246 | 140.35269 | 22009 ft | 431 kts | 181° |
| 2026-04-25 21:32 | 38.72234 | 140.35313 | 22408 ft | 434 kts | 181° |
| 2026-04-25 21:33 | 38.69208 | 140.35358 | 22806 ft | 437 kts | 181° |
| 2026-04-25 21:33 | 38.66156 | 140.35403 | 23194 ft | 439 kts | 181° |
| 2026-04-25 21:33 | 38.63089 | 140.35448 | 23561 ft | 442 kts | 181° |
| 2026-04-25 21:33 | 38.60013 | 140.35492 | 23906 ft | 444 kts | 181° |
| 2026-04-25 21:34 | 38.56904 | 140.35538 | 24234 ft | 446 kts | 181° |
| 2026-04-25 21:34 | 38.53796 | 140.35583 | 24564 ft | 447 kts | 182° |
| 2026-04-25 21:34 | 38.50690 | 140.35628 | 24903 ft | 449 kts | 182° |
| 2026-04-25 21:34 | 38.47548 | 140.35674 | 25211 ft | 450 kts | 182° |
| 2026-04-25 21:35 | 38.44415 | 140.35719 | 25515 ft | 452 kts | 182° |
| 2026-04-25 21:35 | 38.41259 | 140.35765 | 25816 ft | 453 kts | 182° |
| 2026-04-25 21:35 | 38.38105 | 140.36049 | 26080 ft | 460 kts | 171° |
| 2026-04-25 21:35 | 38.35071 | 140.37257 | 26370 ft | 465 kts | 163° |
| 2026-04-25 21:36 | 38.31993 | 140.38688 | 26669 ft | 466 kts | 163° |
| 2026-04-25 21:36 | 38.28937 | 140.40086 | 26946 ft | 467 kts | 164° |
| 2026-04-25 21:36 | 38.25876 | 140.41448 | 27321 ft | 465 kts | 165° |
| 2026-04-25 21:36 | 38.22858 | 140.42763 | 27731 ft | 464 kts | 165° |
| 2026-04-25 21:37 | 38.19802 | 140.44081 | 28127 ft | 462 kts | 166° |
| 2026-04-25 21:37 | 38.18775 | 140.44523 | 28224 ft | 463 kts | 166° |
| 2026-04-25 21:37 | 38.10635 | 140.48039 | 28243 ft | 462 kts | 166° |
| 2026-04-25 21:38 | 38.04561 | 140.50673 | 28263 ft | 461 kts | 166° |
| 2026-04-25 21:38 | 37.98493 | 140.53298 | 28256 ft | 461 kts | 166° |
| 2026-04-25 21:39 | 37.92426 | 140.55917 | 28261 ft | 460 kts | 166° |
| 2026-04-25 21:39 | 37.86357 | 140.58532 | 28257 ft | 461 kts | 167° |
| 2026-04-25 21:40 | 37.80283 | 140.61144 | 28258 ft | 461 kts | 167° |
| 2026-04-25 21:40 | 37.74104 | 140.62603 | 28266 ft | 447 kts | 185° |
| 2026-04-25 21:41 | 37.68038 | 140.61687 | 28271 ft | 436 kts | 198° |
| 2026-04-25 21:41 | 37.62140 | 140.59916 | 28256 ft | 436 kts | 199° |
| 2026-04-25 21:42 | 37.56217 | 140.58169 | 28260 ft | 437 kts | 198° |
| 2026-04-25 21:42 | 37.51291 | 140.56749 | 28250 ft | 437 kts | 198° |
| 2026-04-25 21:43 | 37.45365 | 140.55057 | 28237 ft | 436 kts | 198° |
| 2026-04-25 21:43 | 37.39458 | 140.53374 | 28235 ft | 435 kts | 199° |
| 2026-04-25 21:44 | 37.33553 | 140.51691 | 28221 ft | 434 kts | 199° |
| 2026-04-25 21:45 | 37.24732 | 140.49182 | 28208 ft | 433 kts | 199° |
| 2026-04-25 21:45 | 37.18865 | 140.47494 | 28215 ft | 432 kts | 199° |
| 2026-04-25 21:46 | 37.13009 | 140.45826 | 28213 ft | 431 kts | 199° |
| 2026-04-25 21:46 | 37.07154 | 140.44175 | 28231 ft | 431 kts | 199° |
| 2026-04-25 21:47 | 37.01306 | 140.42526 | 28236 ft | 431 kts | 199° |
| 2026-04-25 21:47 | 36.95470 | 140.40880 | 28257 ft | 430 kts | 200° |
| 2026-04-25 21:48 | 36.89625 | 140.39239 | 28261 ft | 430 kts | 200° |
| 2026-04-25 21:48 | 36.83768 | 140.37607 | 27904 ft | 435 kts | 200° |
| 2026-04-25 21:48 | 36.80801 | 140.36779 | 27138 ft | 435 kts | 199° |
| 2026-04-25 21:49 | 36.77844 | 140.35957 | 26247 ft | 436 kts | 198° |
| 2026-04-25 21:49 | 36.74882 | 140.35134 | 25499 ft | 435 kts | 197° |
| 2026-04-25 21:49 | 36.71915 | 140.34421 | 24749 ft | 435 kts | 194° |
| 2026-04-25 21:49 | 36.68929 | 140.33834 | 24078 ft | 434 kts | 193° |
| 2026-04-25 21:50 | 36.65954 | 140.33266 | 23336 ft | 432 kts | 192° |
| 2026-04-25 21:50 | 36.62997 | 140.32683 | 22634 ft | 428 kts | 192° |
| 2026-04-25 21:50 | 36.60073 | 140.32097 | 21948 ft | 424 kts | 192° |
| 2026-04-25 21:50 | 36.57216 | 140.31522 | 21287 ft | 420 kts | 192° |
| 2026-04-25 21:51 | 36.54295 | 140.30933 | 20653 ft | 416 kts | 192° |
| 2026-04-25 21:51 | 36.51446 | 140.30359 | 20032 ft | 413 kts | 192° |
| 2026-04-25 21:51 | 36.48623 | 140.29791 | 19417 ft | 410 kts | 192° |
| 2026-04-25 21:51 | 36.45854 | 140.29235 | 18818 ft | 407 kts | 192° |
| 2026-04-25 21:52 | 36.43030 | 140.28668 | 18136 ft | 405 kts | 192° |
| 2026-04-25 21:52 | 36.40296 | 140.28120 | 17478 ft | 402 kts | 192° |
| 2026-04-25 21:52 | 36.37506 | 140.27565 | 16833 ft | 399 kts | 192° |
| 2026-04-25 21:52 | 36.34779 | 140.27024 | 16229 ft | 395 kts | 192° |
| 2026-04-25 21:53 | 36.32101 | 140.26493 | 15633 ft | 392 kts | 191° |
| 2026-04-25 21:53 | 36.29419 | 140.25962 | 15047 ft | 389 kts | 191° |
| 2026-04-25 21:53 | 36.26755 | 140.25433 | 14474 ft | 386 kts | 191° |
| 2026-04-25 21:53 | 36.24115 | 140.24910 | 13866 ft | 384 kts | 190° |
| 2026-04-25 21:54 | 36.21482 | 140.24390 | 13231 ft | 382 kts | 190° |
| 2026-04-25 21:54 | 36.18895 | 140.23878 | 12969 ft | 372 kts | 190° |
| 2026-04-25 21:54 | 36.16357 | 140.23375 | 12695 ft | 370 kts | 190° |
| 2026-04-25 21:54 | 36.13780 | 140.22862 | 12435 ft | 377 kts | 190° |
| 2026-04-25 21:55 | 36.11179 | 140.22345 | 12159 ft | 379 kts | 190° |
| 2026-04-25 21:55 | 36.08592 | 140.21832 | 11891 ft | 374 kts | 190° |
| 2026-04-25 21:55 | 36.06053 | 140.21329 | 11625 ft | 364 kts | 190° |
| 2026-04-25 21:55 | 36.03591 | 140.20843 | 11365 ft | 354 kts | 190° |
| 2026-04-25 21:56 | 36.01182 | 140.20430 | 11145 ft | 345 kts | 186° |
| 2026-04-25 21:56 | 35.99610 | 140.20333 | 11032 ft | 338 kts | 182° |
| 2026-04-25 21:56 | 35.96518 | 140.20324 | 10797 ft | 326 kts | 181° |
| 2026-04-25 21:56 | 35.94284 | 140.20341 | 10634 ft | 318 kts | 181° |
| 2026-04-25 21:57 | 35.92097 | 140.20343 | 10459 ft | 310 kts | 181° |
| 2026-04-25 21:57 | 35.89966 | 140.20329 | 10303 ft | 303 kts | 181° |
| 2026-04-25 21:57 | 35.87895 | 140.20306 | 10231 ft | 290 kts | 182° |
| 2026-04-25 21:57 | 35.85939 | 140.20278 | 10195 ft | 274 kts | 182° |
| 2026-04-25 21:58 | 35.84035 | 140.20247 | 9886 ft | 273 kts | 182° |
| 2026-04-25 21:58 | 35.82154 | 140.20215 | 9731 ft | 268 kts | 182° |
| 2026-04-25 21:58 | 35.80927 | 140.20194 | 9622 ft | 266 kts | 182° |
| 2026-04-25 21:58 | 35.78972 | 140.20161 | 9466 ft | 265 kts | 182° |
| 2026-04-25 21:59 | 35.77129 | 140.20163 | 9329 ft | 265 kts | 179° |
| 2026-04-25 21:59 | 35.75284 | 140.20249 | 9188 ft | 265 kts | 179° |
| 2026-04-25 21:59 | 35.73442 | 140.20350 | 9046 ft | 265 kts | 179° |
| 2026-04-25 22:00 | 35.69769 | 140.20540 | 8760 ft | 261 kts | 179° |
| 2026-04-25 22:00 | 35.67973 | 140.20627 | 8618 ft | 256 kts | 179° |
| 2026-04-25 22:00 | 35.66208 | 140.20710 | 8477 ft | 251 kts | 179° |
| 2026-04-25 22:00 | 35.64478 | 140.20790 | 8353 ft | 246 kts | 179° |
| 2026-04-25 22:01 | 35.62780 | 140.20869 | 8256 ft | 240 kts | 179° |
| 2026-04-25 22:01 | 35.61140 | 140.20903 | 8253 ft | 234 kts | 180° |
| 2026-04-25 22:01 | 35.59519 | 140.20912 | 8244 ft | 232 kts | 181° |
| 2026-04-25 22:01 | 35.58448 | 140.20916 | 8240 ft | 232 kts | 181° |
| 2026-04-25 22:02 | 35.56285 | 140.20930 | 8250 ft | 233 kts | 181° |
| 2026-04-25 22:02 | 35.54664 | 140.20942 | 8240 ft | 234 kts | 181° |
| 2026-04-25 22:02 | 35.53035 | 140.20954 | 8251 ft | 233 kts | 180° |
| 2026-04-25 22:02 | 35.51411 | 140.20967 | 8247 ft | 233 kts | 181° |
| 2026-04-25 22:03 | 35.49808 | 140.21199 | 8230 ft | 234 kts | 158° |
| 2026-04-25 22:03 | 35.48486 | 140.22343 | 8255 ft | 235 kts | 135° |
| 2026-04-25 22:03 | 35.47445 | 140.23859 | 8269 ft | 236 kts | 130° |
| 2026-04-25 22:03 | 35.46414 | 140.25472 | 8257 ft | 238 kts | 130° |
| 2026-04-25 22:04 | 35.45381 | 140.27074 | 8248 ft | 240 kts | 130° |
| 2026-04-25 22:04 | 35.44355 | 140.28651 | 8251 ft | 240 kts | 131° |
| 2026-04-25 22:04 | 35.43310 | 140.30244 | 8239 ft | 240 kts | 131° |
| 2026-04-25 22:04 | 35.42095 | 140.31580 | 8241 ft | 233 kts | 154° |
| 2026-04-25 22:05 | 35.40625 | 140.32454 | 8261 ft | 236 kts | 156° |
| 2026-04-25 22:05 | 35.39137 | 140.33342 | 8258 ft | 239 kts | 155° |
| 2026-04-25 22:05 | 35.37642 | 140.34245 | 8261 ft | 241 kts | 155° |
| 2026-04-25 22:05 | 35.36142 | 140.35157 | 8248 ft | 239 kts | 155° |
| 2026-04-25 22:06 | 35.34585 | 140.35741 | 8235 ft | 232 kts | 179° |
| 2026-04-25 22:06 | 35.32985 | 140.35789 | 8243 ft | 231 kts | 179° |
| 2026-04-25 22:06 | 35.31377 | 140.35851 | 8249 ft | 234 kts | 179° |
| 2026-04-25 22:06 | 35.29740 | 140.35918 | 8260 ft | 235 kts | 179° |
| 2026-04-25 22:07 | 35.28094 | 140.35988 | 8248 ft | 236 kts | 179° |
| 2026-04-25 22:07 | 35.27005 | 140.36035 | 8253 ft | 236 kts | 179° |
| 2026-04-25 22:07 | 35.24932 | 140.35359 | 8235 ft | 234 kts | 218° |
| 2026-04-25 22:07 | 35.23877 | 140.33837 | 8047 ft | 239 kts | 242° |
| 2026-04-25 22:08 | 35.23209 | 140.31982 | 7856 ft | 238 kts | 247° |
| 2026-04-25 22:08 | 35.22615 | 140.30102 | 7663 ft | 236 kts | 248° |
| 2026-04-25 22:08 | 35.22023 | 140.28237 | 7490 ft | 235 kts | 247° |
| 2026-04-25 22:08 | 35.21421 | 140.26381 | 7310 ft | 234 kts | 247° |
| 2026-04-25 22:09 | 35.20816 | 140.24534 | 7103 ft | 233 kts | 246° |
| 2026-04-25 22:09 | 35.20410 | 140.22633 | 6913 ft | 233 kts | 266° |
| 2026-04-25 22:09 | 35.20432 | 140.20660 | 6755 ft | 231 kts | 269° |
| 2026-04-25 22:09 | 35.20458 | 140.18700 | 6584 ft | 230 kts | 269° |
| 2026-04-25 22:10 | 35.20471 | 140.16740 | 6375 ft | 229 kts | 269° |
| 2026-04-25 22:10 | 35.20480 | 140.14796 | 6201 ft | 228 kts | 268° |
| 2026-04-25 22:10 | 35.20486 | 140.12849 | 6029 ft | 231 kts | 269° |
| 2026-04-25 22:10 | 35.20493 | 140.10863 | 5847 ft | 235 kts | 269° |
| 2026-04-25 22:11 | 35.20699 | 140.08878 | 5641 ft | 238 kts | 294° |
| 2026-04-25 22:11 | 35.21518 | 140.07118 | 5507 ft | 239 kts | 301° |
| 2026-04-25 22:11 | 35.22362 | 140.05364 | 5287 ft | 240 kts | 300° |
| 2026-04-25 22:11 | 35.23200 | 140.03605 | 5104 ft | 238 kts | 301° |
| 2026-04-25 22:12 | 35.24031 | 140.01869 | 4910 ft | 236 kts | 301° |
| 2026-04-25 22:12 | 35.24853 | 140.00144 | 4736 ft | 234 kts | 302° |
| 2026-04-25 22:12 | 35.25864 | 139.98789 | 4523 ft | 234 kts | 332° |
| 2026-04-25 22:12 | 35.26848 | 139.98342 | 4435 ft | 227 kts | 351° |
| 2026-04-25 22:13 | 35.28937 | 139.98126 | 4293 ft | 229 kts | 350° |
| 2026-04-25 22:13 | 35.30362 | 139.97248 | 4320 ft | 224 kts | 329° |
| 2026-04-25 22:13 | 35.31698 | 139.96257 | 4242 ft | 224 kts | 331° |
| 2026-04-25 22:13 | 35.33023 | 139.95318 | 4235 ft | 222 kts | 332° |
| 2026-04-25 22:14 | 35.34367 | 139.94373 | 4252 ft | 224 kts | 332° |
| 2026-04-25 22:14 | 35.35292 | 139.93723 | 4259 ft | 227 kts | 331° |
| 2026-04-25 22:14 | 35.36652 | 139.92783 | 4154 ft | 232 kts | 333° |
| 2026-04-25 22:14 | 35.38123 | 139.91801 | 3767 ft | 242 kts | 332° |
| 2026-04-25 22:15 | 35.39597 | 139.90774 | 3427 ft | 243 kts | 332° |
| 2026-04-25 22:15 | 35.41057 | 139.89728 | 3069 ft | 243 kts | 330° |
| 2026-04-25 22:15 | 35.42502 | 139.88694 | 2742 ft | 237 kts | 331° |
| 2026-04-25 22:16 | 35.45184 | 139.86783 | 2108 ft | 210 kts | 332° |
| 2026-04-25 22:16 | 35.46407 | 139.85910 | 1840 ft | 196 kts | 332° |
| 2026-04-25 22:16 | 35.47546 | 139.85098 | 1603 ft | 180 kts | 332° |
| 2026-04-25 22:16 | 35.48584 | 139.84356 | 1344 ft | 165 kts | 332° |
| 2026-04-25 22:17 | 35.49528 | 139.83683 | 1112 ft | 149 kts | 332° |
| 2026-04-25 22:17 | 35.50368 | 139.83084 | 936 ft | 136 kts | 332° |
| 2026-04-25 22:17 | 35.51174 | 139.82510 | 791 ft | 133 kts | 332° |
| 2026-04-25 22:17 | 35.51974 | 139.81933 | 632 ft | 135 kts | 331° |
| 2026-04-25 22:18 | 35.52794 | 139.81341 | 426 ft | 136 kts | 331° |
| 2026-04-25 22:18 | 35.53613 | 139.80760 | 223 ft | 136 kts | 332° |
| 2026-04-25 22:18 | 35.54408 | 139.80196 | 41 ft | 128 kts | 332° |
| 2026-04-25 22:18 | 35.55014 | 139.79773 | 28 ft | 40 kts | 330° |
| 2026-04-25 22:19 | 35.55156 | 139.79673 | 27 ft | 24 kts | 330° |
| 2026-04-25 22:19 | 35.55304 | 139.79566 | 27 ft | 25 kts | 327° |
| 2026-04-25 22:19 | 35.55429 | 139.79428 | 25 ft | 23 kts | 309° |
| 2026-04-25 22:19 | 35.55505 | 139.79289 | 23 ft | 12 kts | 294° |
| 2026-04-25 22:20 | 35.55477 | 139.79209 | 26 ft | 12 kts | 197° |
| 2026-04-25 22:20 | 35.55404 | 139.79243 | 30 ft | 11 kts | 150° |
| 2026-04-25 22:20 | 35.55328 | 139.79274 | 29 ft | 13 kts | 193° |
| 2026-04-25 22:20 | 35.55265 | 139.79179 | 26 ft | 16 kts | 239° |
| 2026-04-25 22:21 | 35.55199 | 139.79071 | 27 ft | 16 kts | 206° |
| 2026-04-25 22:21 | 35.55101 | 139.79105 | 27 ft | 8 kts | 161° |
| 2026-04-25 22:21 | 35.55066 | 139.79064 | 28 ft | 7 kts | 240° |
| 2026-04-25 22:21 | 35.55045 | 139.79023 | 27 ft | 0 kts | 240° |